Portada
METAR-TAF:

METAR-TAF

Aeroports :

Pella, Iowa, Estats Units d'Amèrica

Pella Municipal Airport

latitud: 41-24N, longitud: 092-56W, altitud: 270 m

Observació

L'informe es va fer fa 7 minuts, a les 04:55 UTC
Vent 11 kt del Nord amb ràfegues de 16 kt
Temperatura 14°C
Humitat 55%
Pressió 1020 hPa
Visibilitat: 16.1 km
Núvols disperses a una alçada de 7500 ft

METAR: KPEA 250455Z AUTO 35011G16KT 10SM SCT075 14/05 A3013 RMK AO2 T01370045 402450054

Hora: 00:02 (05:02 UTC)


TAF: manca

Observacions i pronòstics meteorològics de més de 4000 aeroports (METAR i TAF).

Les estacions disponibles són els punts grocs i vermells al mapa.

Posi el ratolí al punt desitjat per veure el nom de l'estació.

Feu clic per veure les observacions i els pronòstics meteorològics.

Per canviar el mapa: feu clic els botons verds amb una creu de color negre per apropar; al botó verd amb un guió per allunyar la imatge; o en les fletxes verdes per a mapes adjacents.


METAR-TAF: